Time;durP1;ratioP1;P1;durP2;ratioP2;P2;SDS_P1;SDS_P2;PMS_P1;PMS_P2;Temp;Humidity;BMP_temperature;BMP_pressure;BME280_temperature;BME280_humidity;BME280_pressure;Samples;Min_cycle;Max_cycle;Signal;HPM_P1;HPM_P2
2022/08/26 00:01:10;;;;;;;1.65;1.55;;;29.00;36.20;;;;;;5171081;27;45280;-69
2022/08/26 00:03:37;;;;;;;1.70;1.48;;;29.00;36.30;;;;;;5171080;27;45190;-69
2022/08/26 00:06:05;;;;;;;1.60;1.50;;;28.90;36.40;;;;;;5170646;27;46386;-69
2022/08/26 00:08:33;;;;;;;1.60;1.50;;;28.90;36.40;;;;;;5128840;27;45359;-69
2022/08/26 00:11:00;;;;;;;1.80;1.70;;;28.90;36.40;;;;;;5129031;27;45166;-69
2022/08/26 00:13:27;;;;;;;1.67;1.58;;;28.80;36.30;;;;;;5129340;27;45330;-69
2022/08/26 00:15:54;;;;;;;1.70;1.60;;;28.80;36.30;;;;;;5149480;27;45296;-69
2022/08/26 00:18:20;;;;;;;1.60;1.50;;;28.80;36.40;;;;;;5149902;27;45245;-69
2022/08/26 00:20:47;;;;;;;1.98;1.80;;;28.80;36.40;;;;;;5149952;27;45261;-69
2022/08/26 00:23:14;;;;;;;1.73;1.60;;;28.70;36.50;;;;;;5149816;27;45400;-69
2022/08/26 00:25:42;;;;;;;1.33;1.27;;;28.70;36.50;;;;;;5149317;27;46744;-69
2022/08/26 00:28:09;;;;;;;1.63;1.52;;;28.70;36.50;;;;;;5149268;27;45273;-69
2022/08/26 00:30:36;;;;;;;1.90;1.80;;;28.70;36.60;;;;;;5159636;27;45336;-69
2022/08/26 00:33:04;;;;;;;1.65;1.55;;;28.70;36.60;;;;;;5170590;27;45309;-69
2022/08/26 00:35:30;;;;;;;1.30;1.30;;;28.70;36.60;;;;;;5170178;27;45367;-69
2022/08/26 00:37:57;;;;;;;1.50;1.40;;;28.70;36.60;;;;;;5170235;27;45186;-69
2022/08/26 00:40:27;;;;;;;1.70;1.60;;;28.60;36.60;;;;;;5170283;27;45321;-69
2022/08/26 00:42:55;;;;;;;1.80;1.70;;;28.60;36.60;;;;;;5170456;27;45410;-69
2022/08/26 00:45:22;;;;;;;1.50;1.40;;;28.60;36.70;;;;;;5170055;27;45185;-70
2022/08/26 00:47:50;;;;;;;1.50;1.40;;;28.60;36.70;;;;;;5170199;27;45264;-69
2022/08/26 00:50:19;;;;;;;1.60;1.50;;;28.60;36.70;;;;;;5170543;27;45279;-69
2022/08/26 00:52:46;;;;;;;1.52;1.42;;;28.50;36.80;;;;;;5170280;27;45185;-69
2022/08/26 00:55:16;;;;;;;1.27;1.27;;;28.50;36.70;;;;;;5169811;27;46376;-69
2022/08/26 00:57:42;;;;;;;1.40;1.30;;;28.50;36.80;;;;;;5169861;27;45294;-69
2022/08/26 01:00:13;;;;;;;1.38;1.20;;;28.50;36.80;;;;;;5169925;27;45276;-69
2022/08/26 01:02:40;;;;;;;1.73;1.60;;;28.50;36.80;;;;;;5170361;27;45309;-69
2022/08/26 01:05:07;;;;;;;1.55;1.45;;;28.40;36.80;;;;;;5169738;27;46408;-69
2022/08/26 01:07:34;;;;;;;1.30;1.20;;;28.40;36.70;;;;;;5156965;27;45248;-69
2022/08/26 01:10:02;;;;;;;1.35;1.30;;;28.40;36.90;;;;;;5148913;27;45142;-69
2022/08/26 01:12:30;;;;;;;1.23;1.23;;;28.40;36.80;;;;;;5148961;27;45319;-70
2022/08/26 01:14:57;;;;;;;1.38;1.35;;;28.40;36.90;;;;;;5150842;27;46197;-69
2022/08/26 01:17:25;;;;;;;1.90;1.60;;;28.40;37.00;;;;;;5157269;27;45217;-69
2022/08/26 01:19:54;;;;;;;1.55;1.45;;;28.30;36.90;;;;;;5148752;27;45124;-69
2022/08/26 01:22:22;;;;;;;1.60;1.50;;;28.30;37.60;;;;;;5148854;27;45291;-69
2022/08/26 01:24:50;;;;;;;1.65;1.55;;;28.30;37.00;;;;;;5148424;27;45221;-69
2022/08/26 01:27:19;;;;;;;1.50;1.40;;;28.30;37.00;;;;;;5148478;27;45222;-69
2022/08/26 01:29:47;;;;;;;1.50;1.40;;;28.20;36.90;;;;;;5151305;27;45379;-69
2022/08/26 01:32:15;;;;;;;1.50;1.40;;;28.20;36.90;;;;;;5169786;27;45470;-69
2022/08/26 01:34:42;;;;;;;1.48;1.38;;;28.20;36.90;;;;;;5169249;27;45227;-69
2022/08/26 01:37:11;;;;;;;1.45;1.35;;;28.20;36.90;;;;;;5169104;27;45217;-69
2022/08/26 01:39:38;;;;;;;1.60;1.50;;;28.20;37.00;;;;;;5168961;27;45312;-69
2022/08/26 01:42:07;;;;;;;2.20;1.50;;;28.20;37.00;;;;;;5169560;27;45228;-69
2022/08/26 01:44:36;;;;;;;1.42;1.30;;;28.20;37.00;;;;;;5169255;27;46389;-69
2022/08/26 01:47:03;;;;;;;1.40;1.30;;;28.20;37.20;;;;;;5169103;27;45382;-69
2022/08/26 01:49:30;;;;;;;1.70;1.60;;;28.10;37.10;;;;;;5169462;27;45229;-69
2022/08/26 01:51:56;;;;;;;1.52;1.40;;;28.20;37.10;;;;;;5169548;27;45215;-69
2022/08/26 01:54:23;;;;;;;1.48;1.38;;;28.10;37.20;;;;;;5169115;27;46346;-69
2022/08/26 01:56:50;;;;;;;1.50;1.40;;;28.10;37.20;;;;;;5169123;27;45233;-69
2022/08/26 01:59:19;;;;;;;1.65;1.52;;;28.00;37.20;;;;;;5169273;27;45263;-69
2022/08/26 02:01:45;;;;;;;1.45;1.35;;;28.00;37.30;;;;;;5169373;27;45102;-69
2022/08/26 02:04:15;;;;;;;1.40;1.30;;;28.00;37.30;;;;;;5168923;27;46664;-69
2022/08/26 02:06:42;;;;;;;1.60;1.50;;;28.00;37.30;;;;;;5163868;27;45270;-69
2022/08/26 02:09:09;;;;;;;1.65;1.55;;;28.00;37.30;;;;;;5148016;27;45284;-69
2022/08/26 02:11:35;;;;;;;1.50;1.40;;;28.00;37.30;;;;;;5148227;27;45120;-69
2022/08/26 02:14:04;;;;;;;1.60;1.50;;;27.90;37.20;;;;;;5145161;27;46216;-69
2022/08/26 02:16:36;;;;;;;1.52;1.42;;;27.90;37.30;;;;;;5158896;27;45407;-69
2022/08/26 02:19:03;;;;;;;1.48;1.38;;;27.90;37.50;;;;;;5147935;27;45206;-69
2022/08/26 02:21:30;;;;;;;1.23;1.17;;;27.90;37.30;;;;;;5148076;27;45248;-69
2022/08/26 02:23:57;;;;;;;1.50;1.40;;;27.90;37.40;;;;;;5147594;27;45320;-69
2022/08/26 02:26:24;;;;;;;1.58;1.48;;;27.90;37.50;;;;;;5147666;27;45276;-69
2022/08/26 02:28:53;;;;;;;1.55;1.45;;;27.80;37.40;;;;;;5147975;27;45270;-69
2022/08/26 02:31:19;;;;;;;2.35;1.55;;;27.80;37.40;;;;;;5164457;27;45117;-69
2022/08/26 02:33:47;;;;;;;1.50;1.40;;;27.80;37.40;;;;;;5168435;27;46473;-69
2022/08/26 02:36:19;;;;;;;1.45;1.35;;;27.80;37.50;;;;;;5168452;27;45268;-69
2022/08/26 02:38:46;;;;;;;1.67;1.58;;;27.80;38.10;;;;;;5168626;27;45293;-70
2022/08/26 02:41:13;;;;;;;1.50;1.40;;;27.80;37.60;;;;;;5168742;27;45362;-70
2022/08/26 02:43:39;;;;;;;1.17;1.17;;;27.70;37.50;;;;;;5168388;27;45293;-70
2022/08/26 02:46:06;;;;;;;1.42;1.33;;;27.70;37.50;;;;;;5168598;27;45212;-71
2022/08/26 02:48:33;;;;;;;1.55;1.45;;;27.70;37.60;;;;;;5168535;27;45197;-70
2022/08/26 02:51:01;;;;;;;1.50;1.40;;;27.70;37.70;;;;;;5169559;27;45395;-70
2022/08/26 02:53:28;;;;;;;1.65;1.55;;;27.70;37.50;;;;;;5172033;27;45491;-71
2022/08/26 02:55:55;;;;;;;1.58;1.48;;;27.70;37.70;;;;;;5171894;27;45176;-71
2022/08/26 02:58:22;;;;;;;1.80;1.70;;;27.70;37.80;;;;;;5172017;27;45184;-70
2022/08/26 03:00:48;;;;;;;1.45;1.35;;;27.60;37.60;;;;;;5172161;27;45167;-71
2022/08/26 03:03:15;;;;;;;1.52;1.42;;;27.60;37.60;;;;;;5171714;27;46439;-70
2022/08/26 03:05:43;;;;;;;1.58;1.48;;;27.60;37.80;;;;;;5171762;27;45309;-70
2022/08/26 03:08:11;;;;;;;3.83;1.80;;;27.60;37.80;;;;;;5154143;27;45314;-70
2022/08/26 03:10:38;;;;;;;1.60;1.50;;;27.60;37.80;;;;;;5150996;27;45466;-70
2022/08/26 03:13:05;;;;;;;1.55;1.45;;;27.50;37.70;;;;;;5150790;27;46356;-71
2022/08/26 03:15:32;;;;;;;1.27;1.27;;;27.50;37.70;;;;;;5150537;27;45352;-70
2022/08/26 03:17:59;;;;;;;1.30;1.27;;;27.50;37.80;;;;;;5167870;27;45313;-71
2022/08/26 03:20:26;;;;;;;1.60;1.50;;;27.50;37.80;;;;;;5171770;27;45311;-70
2022/08/26 03:22:54;;;;;;;1.63;1.52;;;27.50;37.90;;;;;;5171535;27;45238;-70
2022/08/26 03:25:22;;;;;;;1.70;1.60;;;27.50;37.90;;;;;;5171392;27;45334;-70
2022/08/26 03:27:49;;;;;;;1.55;1.45;;;27.50;37.90;;;;;;5171531;27;45486;-70
2022/08/26 03:33:00;;;;;;;1.42;1.33;;;27.40;37.90;;;;;;5150531;27;45351;-71
2022/08/26 03:35:27;;;;;;;1.35;1.27;;;27.40;37.90;;;;;;5150355;27;45290;-71
2022/08/26 03:37:54;;;;;;;1.70;1.60;;;27.40;37.90;;;;;;5150097;27;45208;-71
2022/08/26 03:40:22;;;;;;;1.70;1.60;;;27.40;38.00;;;;;;5150284;27;45500;-70
2022/08/26 03:42:49;;;;;;;1.48;1.38;;;27.40;37.90;;;;;;5150000;27;46418;-70
2022/08/26 03:45:17;;;;;;;1.50;1.40;;;27.40;38.10;;;;;;5150192;27;45266;-70
2022/08/26 03:47:44;;;;;;;1.70;1.60;;;27.30;38.00;;;;;;5150123;27;45101;-70
2022/08/26 03:50:12;;;;;;;1.42;1.33;;;27.30;38.10;;;;;;5150221;27;45187;-71
2022/08/26 03:52:39;;;;;;;2.17;1.80;;;27.30;38.10;;;;;;5149898;27;46391;-70
2022/08/26 03:55:07;;;;;;;3.95;1.60;;;27.30;38.30;;;;;;5149861;27;45203;-71
2022/08/26 03:57:35;;;;;;;1.60;1.50;;;27.30;38.20;;;;;;5150014;27;45131;-70
2022/08/26 04:00:04;;;;;;;1.60;1.50;;;27.30;38.30;;;;;;5150042;27;45371;-71
2022/08/26 04:02:30;;;;;;;1.67;1.58;;;27.20;38.20;;;;;;5149118;27;46396;-70
2022/08/26 04:04:57;;;;;;;1.70;1.60;;;27.20;38.30;;;;;;5149951;27;45268;-71
2022/08/26 04:07:25;;;;;;;1.70;1.60;;;27.20;38.20;;;;;;5161007;27;45410;-71
2022/08/26 04:09:54;;;;;;;1.55;1.45;;;27.20;38.30;;;;;;5171047;27;45252;-71
2022/08/26 04:12:21;;;;;;;1.45;1.45;;;27.20;38.30;;;;;;5170693;27;46298;-71
2022/08/26 04:14:49;;;;;;;1.50;1.40;;;27.20;38.40;;;;;;5169591;27;45243;-71
2022/08/26 04:17:16;;;;;;;1.70;1.60;;;27.20;38.40;;;;;;5160874;27;45444;-71
2022/08/26 04:19:43;;;;;;;1.60;1.50;;;27.10;38.90;;;;;;5170980;27;45231;-71
2022/08/26 04:22:10;;;;;;;1.48;1.38;;;27.10;38.30;;;;;;5170465;27;47262;-70
2022/08/26 04:24:38;;;;;;;1.50;1.40;;;27.10;38.30;;;;;;5170460;27;45201;-71
2022/08/26 04:27:05;;;;;;;1.60;1.50;;;27.10;38.40;;;;;;5170517;27;45190;-71
2022/08/26 04:29:32;;;;;;;2.15;1.80;;;27.10;38.50;;;;;;5169984;27;45371;-71
2022/08/26 04:32:01;;;;;;;1.40;1.40;;;27.00;38.50;;;;;;5149314;27;46417;-71
2022/08/26 04:34:28;;;;;;;1.48;1.38;;;27.00;38.40;;;;;;5149425;27;45278;-70
2022/08/26 04:36:56;;;;;;;1.85;1.75;;;27.00;38.60;;;;;;5149211;27;45354;-71
2022/08/26 04:39:23;;;;;;;1.67;1.58;;;27.00;38.50;;;;;;5149617;27;45439;-71
2022/08/26 04:41:52;;;;;;;1.65;1.55;;;27.00;38.70;;;;;;5140544;27;45296;-71
2022/08/26 04:44:19;;;;;;;2.22;1.60;;;27.00;38.60;;;;;;5148971;27;45207;-71
2022/08/26 04:46:45;;;;;;;1.80;1.70;;;26.90;38.60;;;;;;5148919;27;45160;-71
2022/08/26 04:49:14;;;;;;;1.73;1.63;;;26.90;38.60;;;;;;5149376;27;45232;-71
2022/08/26 04:51:40;;;;;;;1.42;1.33;;;26.90;38.70;;;;;;5148767;27;46404;-70
2022/08/26 04:54:07;;;;;;;1.77;1.67;;;26.90;38.70;;;;;;5149011;27;45181;-71
2022/08/26 04:56:37;;;;;;;1.63;1.52;;;26.90;38.70;;;;;;5148983;27;45126;-71
2022/08/26 04:59:06;;;;;;;2.17;1.58;;;26.90;38.80;;;;;;5149142;27;45421;-71
2022/08/26 05:01:33;;;;;;;2.20;1.98;;;26.90;38.60;;;;;;5148246;27;46404;-71
2022/08/26 05:04:00;;;;;;;1.83;1.73;;;26.90;38.70;;;;;;5148677;27;45148;-71
2022/08/26 05:06:29;;;;;;;1.52;1.40;;;26.80;38.70;;;;;;5148819;27;45232;-70
2022/08/26 05:08:56;;;;;;;1.60;1.50;;;26.80;38.80;;;;;;5149053;27;45398;-71
2022/08/26 05:11:22;;;;;;;1.80;1.70;;;26.80;38.80;;;;;;5148566;27;45194;-71
2022/08/26 05:13:49;;;;;;;2.08;1.98;;;26.80;38.80;;;;;;5147734;27;45208;-71
2022/08/26 05:16:16;;;;;;;1.75;1.65;;;26.80;38.80;;;;;;5148536;27;45261;-71
2022/08/26 05:18:43;;;;;;;2.03;1.83;;;26.70;38.80;;;;;;5148767;27;45394;-71
2022/08/26 05:21:16;;;;;;;1.98;1.88;;;26.70;38.80;;;;;;5148346;27;45642;-70
2022/08/26 05:23:45;;;;;;;2.13;1.50;;;26.70;39.10;;;;;;5148498;27;45393;-71
2022/08/26 05:26:11;;;;;;;2.17;1.70;;;26.70;39.10;;;;;;5148856;27;45276;-71
2022/08/26 05:28:38;;;;;;;1.88;1.77;;;26.70;39.00;;;;;;5148794;27;45226;-71
2022/08/26 05:31:12;;;;;;;1.73;1.63;;;26.70;39.10;;;;;;5148238;27;46353;-71
2022/08/26 05:33:38;;;;;;;1.60;1.50;;;26.70;39.20;;;;;;5148429;27;45142;-71
2022/08/26 05:36:08;;;;;;;2.08;1.90;;;26.70;39.10;;;;;;5148377;27;45241;-71
2022/08/26 05:38:34;;;;;;;1.60;1.50;;;26.70;39.10;;;;;;5148283;27;45251;-71
2022/08/26 05:41:03;;;;;;;1.83;1.70;;;26.70;39.10;;;;;;5147883;27;48298;-71
2022/08/26 05:43:29;;;;;;;1.90;1.80;;;26.60;39.10;;;;;;5148224;27;45157;-71
2022/08/26 05:45:56;;;;;;;2.53;1.60;;;26.60;39.20;;;;;;5148327;27;45192;-71
2022/08/26 05:48:23;;;;;;;2.00;1.80;;;26.60;39.10;;;;;;5148362;27;45631;-70
2022/08/26 05:50:51;;;;;;;2.88;1.75;;;26.60;39.20;;;;;;5148079;27;46823;-71
2022/08/26 05:53:20;;;;;;;2.58;1.90;;;26.60;39.10;;;;;;5148050;27;45180;-71
2022/08/26 05:55:47;;;;;;;2.00;1.80;;;26.60;39.10;;;;;;5148033;27;45183;-70
2022/08/26 05:58:16;;;;;;;2.13;1.90;;;26.60;39.10;;;;;;5148255;27;45322;-70
2022/08/26 06:00:43;;;;;;;2.13;1.70;;;26.60;39.30;;;;;;5147771;27;47521;-70
2022/08/26 06:03:10;;;;;;;1.70;1.60;;;26.60;39.20;;;;;;5147672;27;45202;-70
2022/08/26 06:05:38;;;;;;;1.67;1.58;;;26.60;39.30;;;;;;5148207;27;45250;-70
2022/08/26 06:08:13;;;;;;;2.03;1.70;;;26.50;39.20;;;;;;5148041;27;45256;-70
2022/08/26 06:10:44;;;;;;;1.83;1.73;;;26.50;39.20;;;;;;5147789;27;47602;-71
2022/08/26 06:13:11;;;;;;;1.75;1.63;;;26.60;39.40;;;;;;5147894;27;45208;-70
2022/08/26 06:15:41;;;;;;;1.50;1.40;;;26.60;39.30;;;;;;5147850;27;45383;-70
2022/08/26 06:18:08;;;;;;;1.90;1.80;;;26.60;39.30;;;;;;5147848;27;45477;-70
2022/08/26 06:20:36;;;;;;;2.33;2.13;;;26.60;39.20;;;;;;5147593;27;46769;-70
2022/08/26 06:25:49;;;;;;;2.20;1.83;;;26.60;39.10;;;;;;5150250;27;45163;-70
2022/08/26 06:28:16;;;;;;;1.60;1.50;;;26.60;39.20;;;;;;5151623;27;45321;-70
2022/08/26 06:30:44;;;;;;;2.15;1.95;;;26.60;39.20;;;;;;5151077;27;45736;-70
2022/08/26 06:33:12;;;;;;;1.80;1.70;;;26.60;39.20;;;;;;5151454;27;45199;-71
2022/08/26 06:35:38;;;;;;;2.63;1.70;;;26.60;39.10;;;;;;5150882;27;45512;-70
2022/08/26 06:38:05;;;;;;;1.92;1.83;;;26.60;39.10;;;;;;5150960;27;45466;-71
2022/08/26 06:40:32;;;;;;;1.75;1.65;;;26.70;39.20;;;;;;5150957;27;46390;-70
2022/08/26 06:42:59;;;;;;;1.85;1.60;;;26.60;39.10;;;;;;5151085;27;45199;-70
2022/08/26 06:45:26;;;;;;;1.48;1.38;;;26.70;39.10;;;;;;5151383;27;45206;-71
2022/08/26 06:47:54;;;;;;;1.73;1.63;;;26.70;39.10;;;;;;5151269;27;45328;-70
2022/08/26 06:50:21;;;;;;;1.70;1.60;;;26.70;39.10;;;;;;5151040;27;46418;-70
2022/08/26 06:52:48;;;;;;;1.75;1.65;;;26.70;39.10;;;;;;5150757;27;45237;-70
2022/08/26 06:55:15;;;;;;;1.70;1.60;;;26.70;39.10;;;;;;5150999;27;45226;-70
2022/08/26 06:57:42;;;;;;;2.30;2.10;;;26.70;39.10;;;;;;5151029;27;45376;-71
2022/08/26 07:00:10;;;;;;;3.40;2.20;;;26.70;39.20;;;;;;5150655;27;46359;-70
2022/08/26 07:02:36;;;;;;;2.38;2.00;;;26.80;39.60;;;;;;5150754;27;45252;-70
2022/08/26 07:05:05;;;;;;;6.35;2.05;;;26.80;39.40;;;;;;5150830;27;45252;-70
2022/08/26 07:07:32;;;;;;;3.78;2.03;;;26.80;39.40;;;;;;5150877;27;45183;-70
2022/08/26 07:09:59;;;;;;;2.05;1.85;;;26.80;39.40;;;;;;5150225;27;46704;-71
2022/08/26 07:12:26;;;;;;;2.20;1.83;;;26.80;39.40;;;;;;5150612;27;45282;-70
2022/08/26 07:14:53;;;;;;;3.08;2.08;;;26.80;40.00;;;;;;5150950;27;45296;-70
2022/08/26 07:17:20;;;;;;;5.05;2.05;;;26.80;39.40;;;;;;5150888;27;45363;-71
2022/08/26 07:19:47;;;;;;;1.98;1.77;;;26.80;39.30;;;;;;5150343;27;45492;-70
2022/08/26 07:22:16;;;;;;;2.60;1.80;;;26.80;39.40;;;;;;5150189;27;45318;-70
2022/08/26 07:24:42;;;;;;;5.45;2.40;;;26.80;39.30;;;;;;5150027;27;45282;-71
2022/08/26 07:27:10;;;;;;;7.00;2.03;;;26.80;40.30;;;;;;5150919;27;45414;-69
2022/08/26 07:29:38;;;;;;;7.43;2.10;;;26.90;40.50;;;;;;5137392;27;45360;-69
2022/08/26 07:32:05;;;;;;;6.28;2.08;;;26.90;42.60;;;;;;5145274;27;45230;-68
2022/08/26 07:34:32;;;;;;;3.90;1.90;;;27.00;42.00;;;;;;5154598;27;45244;-68
2022/08/26 07:36:59;;;;;;;5.68;2.00;;;27.10;41.10;;;;;;5124119;27;45459;-67
2022/08/26 07:39:27;;;;;;;4.00;2.22;;;27.20;40.80;;;;;;5132680;27;47371;-69
2022/08/26 07:41:54;;;;;;;4.18;2.17;;;27.30;40.70;;;;;;5146397;27;45309;-69
2022/08/26 07:44:21;;;;;;;6.75;1.92;;;27.40;40.70;;;;;;5132509;27;45370;-65
2022/08/26 07:46:48;;;;;;;26.42;23.63;;;27.50;41.60;;;;;;5140622;27;45603;-68
2022/08/26 07:49:16;;;;;;;14.70;11.30;;;27.50;43.20;;;;;;5141298;27;45608;-68
2022/08/26 07:51:43;;;;;;;15.60;13.55;;;27.60;42.10;;;;;;5144612;27;45174;-66
2022/08/26 07:54:10;;;;;;;19.83;17.92;;;27.60;41.70;;;;;;5149796;27;45282;-67
2022/08/26 07:56:38;;;;;;;37.38;32.58;;;27.70;41.20;;;;;;5149788;27;45292;-67
2022/08/26 07:59:05;;;;;;;89.18;79.70;;;27.90;41.20;;;;;;5149296;27;45365;-68
2022/08/26 08:01:31;;;;;;;38.67;33.75;;;28.00;41.80;;;;;;5140036;27;45534;-69
2022/08/26 08:03:59;;;;;;;33.00;29.08;;;28.00;41.30;;;;;;5148451;27;45321;-67
2022/08/26 08:06:26;;;;;;;40.47;36.20;;;28.10;41.70;;;;;;5149554;27;45398;-70
2022/08/26 08:08:53;;;;;;;45.47;40.30;;;28.20;41.50;;;;;;5147669;27;46548;-67
2022/08/26 08:11:20;;;;;;;74.68;67.40;;;28.30;41.60;;;;;;5149320;27;45367;-68
2022/08/26 08:13:48;;;;;;;55.33;49.65;;;28.40;42.70;;;;;;5149369;27;45137;-67
2022/08/26 08:16:15;;;;;;;46.63;42.08;;;28.50;41.50;;;;;;5143748;27;45613;-67
2022/08/26 08:18:42;;;;;;;39.30;35.08;;;28.60;41.00;;;;;;5144765;27;45390;-67
2022/08/26 08:21:09;;;;;;;26.80;23.98;;;28.70;40.70;;;;;;5149006;27;45314;-68
2022/08/26 08:23:35;;;;;;;29.00;25.40;;;28.80;41.90;;;;;;5149089;27;45272;-68
2022/08/26 08:26:03;;;;;;;27.13;23.98;;;28.80;41.50;;;;;;5149439;27;45527;-67
2022/08/26 08:28:29;;;;;;;54.75;48.90;;;29.00;40.80;;;;;;5149122;27;45235;-69
2022/08/26 08:30:58;;;;;;;30.40;27.05;;;29.00;40.30;;;;;;5148573;27;45270;-69
2022/08/26 08:33:25;;;;;;;22.05;19.83;;;29.10;40.10;;;;;;5148900;27;45352;-69
2022/08/26 08:35:51;;;;;;;15.85;12.75;;;29.20;40.00;;;;;;5149091;27;45326;-68
2022/08/26 08:38:18;;;;;;;14.18;11.13;;;29.20;40.70;;;;;;5166266;27;47410;-69
2022/08/26 08:40:45;;;;;;;41.35;36.92;;;29.30;41.10;;;;;;5169704;27;45264;-68
2022/08/26 08:43:13;;;;;;;33.95;28.35;;;29.30;41.00;;;;;;5170205;27;45358;-70
2022/08/26 08:45:42;;;;;;;22.83;20.40;;;29.30;41.20;;;;;;5158141;27;45329;-72
2022/08/26 08:48:13;;;;;;;24.20;21.80;;;29.40;42.30;;;;;;5148322;27;45710;-69
2022/08/26 08:50:43;;;;;;;20.55;16.60;;;29.50;42.50;;;;;;5148656;27;45356;-69
2022/08/26 08:53:13;;;;;;;38.15;30.52;;;29.60;42.50;;;;;;5149039;27;45374;-70
2022/08/26 08:56:02;;;;;;;38.58;33.47;;;29.60;42.80;;;;;;5149348;27;45307;-68
2022/08/26 08:58:35;;;;;;;26.92;24.23;;;29.70;42.40;;;;;;5142602;27;46696;-69
2022/08/26 09:01:04;;;;;;;25.52;22.80;;;29.70;41.00;;;;;;5140220;27;45248;-70
2022/08/26 09:03:38;;;;;;;24.35;21.80;;;29.80;41.20;;;;;;5148659;27;45317;-71
2022/08/26 09:06:15;;;;;;;45.42;34.08;;;29.80;41.20;;;;;;5148949;27;45133;-68
2022/08/26 09:08:43;;;;;;;33.63;29.77;;;29.90;41.80;;;;;;5127473;27;45401;-69
2022/08/26 09:11:09;;;;;;;28.17;25.10;;;30.00;41.00;;;;;;5127507;27;45280;-67
2022/08/26 09:13:36;;;;;;;47.13;42.08;;;30.00;40.40;;;;;;5127592;27;45533;-68
2022/08/26 09:16:07;;;;;;;33.25;26.08;;;30.00;41.00;;;;;;5150343;27;45525;-67
2022/08/26 09:18:46;;;;;;;32.55;29.23;;;30.10;41.40;;;;;;5147797;27;47281;-69
2022/08/26 09:21:15;;;;;;;30.45;27.20;;;30.20;41.10;;;;;;5147965;27;45255;-68
2022/08/26 09:23:42;;;;;;;35.30;30.02;;;30.20;40.60;;;;;;5147968;27;45231;-70
2022/08/26 09:26:14;;;;;;;23.88;18.98;;;30.30;40.20;;;;;;5147954;27;45432;-70
2022/08/26 09:28:42;;;;;;;15.02;12.57;;;30.30;41.90;;;;;;5147944;27;46430;-67
2022/08/26 09:31:11;;;;;;;41.25;36.13;;;30.30;41.20;;;;;;5133195;27;45323;-70
2022/08/26 09:33:40;;;;;;;32.97;25.88;;;30.40;40.80;;;;;;5138631;27;45177;-70
2022/08/26 09:36:21;;;;;;;23.35;19.38;;;30.50;40.40;;;;;;5148150;27;45271;-68
2022/08/26 09:38:48;;;;;;;39.53;35.28;;;30.50;42.00;;;;;;5126982;27;46695;-67
2022/08/26 09:41:30;;;;;;;23.83;21.25;;;30.50;41.30;;;;;;5126862;27;45145;-69
2022/08/26 09:44:15;;;;;;;34.58;30.48;;;30.60;40.30;;;;;;5111255;27;45341;-69
2022/08/26 09:46:51;;;;;;;24.30;21.73;;;30.60;40.00;;;;;;5119770;27;45284;-68
2022/08/26 09:49:30;;;;;;;28.17;25.33;;;30.70;40.10;;;;;;5126422;27;46690;-70
2022/08/26 09:52:20;;;;;;;13.07;10.55;;;30.70;39.50;;;;;;5126144;27;45302;-70
2022/08/26 09:55:00;;;;;;;31.23;25.52;;;30.70;40.00;;;;;;5115154;27;45463;-71
2022/08/26 09:57:28;;;;;;;18.38;16.20;;;30.80;40.10;;;;;;5127261;27;45309;-70
2022/08/26 09:59:55;;;;;;;40.03;33.45;;;30.80;39.80;;;;;;5126466;27;46362;-68
2022/08/26 10:02:36;;;;;;;36.47;31.10;;;30.80;40.30;;;;;;5133563;27;45261;-69
2022/08/26 10:05:06;;;;;;;21.52;16.08;;;30.90;40.60;;;;;;5134401;27;45257;-71
2022/08/26 10:07:45;;;;;;;22.42;20.13;;;30.90;40.20;;;;;;5146591;27;45388;-67
2022/08/26 10:10:16;;;;;;;23.95;17.17;;;31.00;40.00;;;;;;5137620;27;45540;-69
2022/08/26 10:12:53;;;;;;;19.05;16.35;;;31.00;40.10;;;;;;5130789;27;45463;-67
2022/08/26 10:15:20;;;;;;;38.97;26.70;;;31.10;40.00;;;;;;5128437;27;45133;-70
2022/08/26 10:17:49;;;;;;;41.65;32.10;;;31.10;39.60;;;;;;5128618;27;45173;-70
2022/08/26 10:20:21;;;;;;;36.38;30.48;;;31.20;41.40;;;;;;5125877;27;46381;-69
2022/08/26 10:22:50;;;;;;;40.30;35.92;;;31.30;39.70;;;;;;5126138;27;45318;-70
2022/08/26 10:25:18;;;;;;;21.80;16.58;;;31.30;40.10;;;;;;5129390;27;45259;-68
2022/08/26 10:27:47;;;;;;;36.15;29.90;;;31.40;39.80;;;;;;5133901;27;45372;-67
2022/08/26 10:30:16;;;;;;;77.22;63.05;;;31.40;39.30;;;;;;5123723;27;46420;-69
2022/08/26 10:32:44;;;;;;;41.95;33.25;;;31.40;40.50;;;;;;5124508;27;45307;-68
2022/08/26 10:35:12;;;;;;;38.42;27.30;;;31.50;39.20;;;;;;5133650;27;45191;-69
2022/08/26 10:37:42;;;;;;;31.33;27.63;;;31.60;40.60;;;;;;5144951;27;45232;-69
2022/08/26 10:40:12;;;;;;;94.13;68.60;;;31.60;40.70;;;;;;5153961;27;45223;-70
2022/08/26 10:42:41;;;;;;;61.88;47.67;;;31.60;41.40;;;;;;5153606;27;45306;-68
2022/08/26 10:45:10;;;;;;;48.20;40.67;;;31.70;40.00;;;;;;5153308;27;45398;-68
2022/08/26 10:47:41;;;;;;;55.08;44.60;;;31.80;39.10;;;;;;5154105;27;45318;-68
2022/08/26 10:50:08;;;;;;;25.85;22.88;;;31.80;38.70;;;;;;5153332;27;45325;-67
2022/08/26 10:52:44;;;;;;;38.90;30.17;;;31.80;38.20;;;;;;5154303;27;45166;-67
2022/08/26 10:55:14;;;;;;;33.38;29.08;;;31.90;39.70;;;;;;5133124;27;45200;-68
2022/08/26 10:57:45;;;;;;;21.08;17.13;;;31.90;40.10;;;;;;5147866;27;45285;-69
2022/08/26 11:03:02;;;;;;;171.50;123.28;;;32.00;40.30;;;;;;5141166;27;45409;-68
2022/08/26 11:05:29;;;;;;;48.20;35.00;;;32.00;40.60;;;;;;5120078;27;45177;-68
2022/08/26 11:08:20;;;;;;;34.00;20.38;;;32.00;39.70;;;;;;5152179;27;45339;-71
2022/08/26 11:10:54;;;;;;;25.63;16.65;;;32.00;39.40;;;;;;5147026;27;46397;-70
2022/08/26 11:13:21;;;;;;;22.48;16.65;;;32.00;39.20;;;;;;5129237;27;45342;-71
2022/08/26 11:16:06;;;;;;;23.45;17.13;;;32.00;39.10;;;;;;5142754;27;45241;-71
2022/08/26 11:18:44;;;;;;;23.40;17.08;;;32.00;38.70;;;;;;5129910;27;45525;-70
2022/08/26 11:21:47;;;;;;;24.58;18.65;;;32.00;38.60;;;;;;5129428;27;46544;-71
2022/08/26 11:24:41;;;;;;;20.92;15.90;;;32.10;38.50;;;;;;5078119;27;45288;-70
2022/08/26 11:27:09;;;;;;;22.05;16.85;;;32.10;38.30;;;;;;5129717;27;45237;-72
2022/08/26 11:30:01;;;;;;;21.60;17.13;;;32.10;38.30;;;;;;5131065;27;45316;-71
2022/08/26 11:32:46;;;;;;;20.02;16.88;;;32.10;38.30;;;;;;5168298;27;45355;-71
2022/08/26 11:35:44;;;;;;;20.73;14.98;;;32.00;38.20;;;;;;5171143;27;45342;-70
2022/08/26 11:38:15;;;;;;;9.50;5.78;;;32.00;38.10;;;;;;5129083;27;45779;-70
2022/08/26 11:40:44;;;;;;;6.25;3.85;;;31.90;39.80;;;;;;5129575;27;45428;-69
2022/08/26 11:43:13;;;;;;;6.65;3.60;;;31.80;39.40;;;;;;5129165;27;45352;-70
2022/08/26 11:45:41;;;;;;;5.38;3.50;;;31.60;39.10;;;;;;5129499;27;45373;-72
2022/08/26 11:48:17;;;;;;;5.25;2.88;;;31.50;40.10;;;;;;5129444;27;45282;-71
2022/08/26 11:50:52;;;;;;;18.88;16.85;;;31.40;41.00;;;;;;5129620;27;45356;-70
2022/08/26 11:53:19;;;;;;;10.23;9.23;;;31.40;40.10;;;;;;5129258;27;46437;-71
2022/08/26 11:55:47;;;;;;;51.70;47.30;;;31.40;40.60;;;;;;5129514;27;45218;-70
2022/08/26 11:58:14;;;;;;;16.73;15.20;;;31.40;40.20;;;;;;5130311;27;45362;-71
2022/08/26 12:00:49;;;;;;;13.25;11.38;;;31.40;40.70;;;;;;5130732;27;45363;-71
2022/08/26 12:03:18;;;;;;;8.73;8.02;;;31.40;41.20;;;;;;5128359;27;46367;-69
2022/08/26 12:05:47;;;;;;;7.78;6.82;;;31.50;39.90;;;;;;5129176;27;45230;-70
2022/08/26 12:08:16;;;;;;;6.80;5.32;;;31.50;39.90;;;;;;5164611;27;45298;-72
2022/08/26 12:10:43;;;;;;;7.18;6.43;;;31.50;40.80;;;;;;5162727;27;45394;-71
2022/08/26 12:13:20;;;;;;;6.30;5.70;;;31.60;39.60;;;;;;5149393;27;46402;-70
2022/08/26 12:15:52;;;;;;;5.82;4.28;;;31.70;38.90;;;;;;5153071;27;45244;-71
2022/08/26 12:18:20;;;;;;;11.38;3.90;;;31.70;38.30;;;;;;5150725;27;45305;-72
2022/08/26 12:20:50;;;;;;;3.75;3.38;;;31.70;38.00;;;;;;5149796;27;45168;-70
2022/08/26 12:23:23;;;;;;;3.70;3.10;;;31.60;37.90;;;;;;5148897;27;45581;-71
2022/08/26 12:25:51;;;;;;;4.30;3.90;;;31.50;37.80;;;;;;5149348;27;45369;-70
2022/08/26 12:28:20;;;;;;;7.07;5.40;;;31.60;38.00;;;;;;5149613;27;45312;-70
2022/08/26 12:30:59;;;;;;;24.17;21.63;;;31.70;38.30;;;;;;5153227;27;45501;-71
2022/08/26 12:33:26;;;;;;;14.70;11.20;;;31.80;38.20;;;;;;5170438;27;45350;-71
2022/08/26 12:35:53;;;;;;;123.82;100.68;;;31.90;37.50;;;;;;5170367;27;45401;-71
2022/08/26 12:38:20;;;;;;;118.00;95.60;;;32.00;37.50;;;;;;5170262;27;45133;-71
2022/08/26 12:40:49;;;;;;;277.10;210.25;;;32.00;37.30;;;;;;5170562;27;45406;-71
2022/08/26 12:43:38;;;;;;;590.33;437.83;;;32.00;37.30;;;;;;5170389;27;45506;-71
2022/08/26 12:46:05;;;;;;;508.75;367.90;;;32.20;37.40;;;;;;5170448;27;45214;-72
2022/08/26 12:48:33;;;;;;;503.50;334.38;;;32.20;37.00;;;;;;5170481;27;45213;-71
2022/08/26 12:51:01;;;;;;;1857.95;954.13;;;32.20;36.60;;;;;;5170138;27;45223;-71
2022/08/26 12:53:29;;;;;;;1999.90;999.90;;;32.30;37.50;;;;;;5170108;27;46389;-69
2022/08/26 12:55:56;;;;;;;1999.90;999.90;;;32.70;37.20;;;;;;5170025;27;45129;-69